Airfield :
LOGIN :

Register | Disclaimer

   EN    FR    IT 

 










Legend :    VFR   Marginal VFR   IFR   Intensive IFR   Very Intensive IFR
Visi :
Ceiling :
>= 8 km
>= 3000ft
5 to 8 km
1000 to 3000 ft
1500m to 5 km
500 to 1000 ft
800 to 1500m
200 to 500 ft
< 800m
< 200 ft
Symbols :   Thunderstorms  Fog  Heavy snow  Heavy precipitations  Wind > 20 kt
SIGMETs :     Misc.  Thunderstorms  Icing  Turbulence  Mountain Waves  Volcanic Ashes






- Airport Elevation : 49 ft
- IATA code : GLZ


EHGR - Gilze-Rijen Airbase

CURRENT METAR :
  • 041155Z AUTO 29008KT 220V360 9999 FEW050 SCT056 21/13 Q1020 BLU NOSIG

EXPIRED METARs :
  • 041125Z AUTO 27008KT 230V330 9999 FEW046 SCT058 21/12 Q1020 BLU NOSIG
  • 041055Z AUTO 30008KT 200V350 9999 SCT032 BKN037 BKN067 22/14 Q1020 BLU NOSIG
  • 041025Z AUTO 26006KT 210V290 9999 FEW025 SCT030 BKN059 21/14 Q1021 BLU NOSIG
  • 040955Z AUTO 24008KT 180V290 9999 FEW025 SCT028 BKN065 21/14 Q1020 BLU NOSIG
  • 040933Z AUTO 25008KT 200V310 9999 SCT023 SCT031 20/14 Q1021 WHT NOSIG
  • 040925Z AUTO 25008KT 200V300 9999 FEW023 20/14 Q1020 BLU NOSIG
  • 040859Z AUTO 24006KT 190V280 9999 SCT022 SCT028 20/14 Q1020 WHT NOSIG

TAF TAF EHGR
Valid from the 04 at 09:00 until the 04 at 21:00 UTC


040820Z 0409/0421 21007KT 9999 SCT020 SCT045
BECMG 0409/0412 27007G17KT



MET'MAP, your aeronautical weather chart ! - Copyright ORBIFLY December 2007 - Disclaimer

ORBIFLY MET'MAP TEAM :

Programming & Development : Alexandra Zaïnal
Original concept : Baudouin d'Aumeries
Technical & hardware support : Manuel Goepfert
Assistance : Marc-Olivier Méhu




SOURCES & CREDITS :

   NOAA